sensor_id;sensor_type;location;lat;lon;timestamp;P1;durP1;ratioP1;P2;durP2;ratioP2
6497;SDS011;3282;48.358;10.958;2022-10-31T00:00:29;16.20;;;8.13;;
6497;SDS011;3282;48.358;10.958;2022-10-31T00:02:55;17.63;;;9.00;;
6497;SDS011;3282;48.358;10.958;2022-10-31T00:05:22;17.33;;;7.97;;
6497;SDS011;3282;48.358;10.958;2022-10-31T00:07:51;15.63;;;8.05;;
6497;SDS011;3282;48.358;10.958;2022-10-31T00:10:18;18.90;;;8.63;;
6497;SDS011;3282;48.358;10.958;2022-10-31T00:12:45;19.73;;;8.95;;
6497;SDS011;3282;48.358;10.958;2022-10-31T00:15:11;19.95;;;9.00;;
6497;SDS011;3282;48.358;10.958;2022-10-31T00:17:38;16.13;;;8.23;;
6497;SDS011;3282;48.358;10.958;2022-10-31T00:20:05;20.95;;;9.10;;
6497;SDS011;3282;48.358;10.958;2022-10-31T00:22:32;18.17;;;9.45;;
6497;SDS011;3282;48.358;10.958;2022-10-31T00:24:58;17.38;;;8.80;;
6497;SDS011;3282;48.358;10.958;2022-10-31T00:27:25;20.15;;;8.68;;
6497;SDS011;3282;48.358;10.958;2022-10-31T00:29:53;18.95;;;9.40;;
6497;SDS011;3282;48.358;10.958;2022-10-31T00:32:20;19.55;;;9.32;;
6497;SDS011;3282;48.358;10.958;2022-10-31T00:34:47;16.98;;;9.10;;
6497;SDS011;3282;48.358;10.958;2022-10-31T00:37:13;19.92;;;10.10;;
6497;SDS011;3282;48.358;10.958;2022-10-31T00:39:42;15.45;;;9.02;;
6497;SDS011;3282;48.358;10.958;2022-10-31T00:42:11;18.85;;;9.52;;
6497;SDS011;3282;48.358;10.958;2022-10-31T00:44:40;17.02;;;9.25;;
6497;SDS011;3282;48.358;10.958;2022-10-31T00:47:07;19.73;;;9.32;;
6497;SDS011;3282;48.358;10.958;2022-10-31T00:49:34;19.48;;;9.93;;
6497;SDS011;3282;48.358;10.958;2022-10-31T00:52:00;16.70;;;9.00;;
6497;SDS011;3282;48.358;10.958;2022-10-31T00:54:27;17.08;;;9.60;;
6497;SDS011;3282;48.358;10.958;2022-10-31T00:56:53;19.00;;;9.50;;
6497;SDS011;3282;48.358;10.958;2022-10-31T00:59:20;21.85;;;10.43;;
6497;SDS011;3282;48.358;10.958;2022-10-31T01:01:47;19.88;;;9.23;;
6497;SDS011;3282;48.358;10.958;2022-10-31T01:04:14;17.83;;;10.07;;
6497;SDS011;3282;48.358;10.958;2022-10-31T01:06:41;17.08;;;9.25;;
6497;SDS011;3282;48.358;10.958;2022-10-31T01:09:07;16.60;;;9.55;;
6497;SDS011;3282;48.358;10.958;2022-10-31T01:11:34;25.02;;;10.82;;
6497;SDS011;3282;48.358;10.958;2022-10-31T01:14:05;20.80;;;10.73;;
6497;SDS011;3282;48.358;10.958;2022-10-31T01:16:31;24.38;;;10.80;;
6497;SDS011;3282;48.358;10.958;2022-10-31T01:18:58;19.95;;;9.68;;
6497;SDS011;3282;48.358;10.958;2022-10-31T01:21:27;18.40;;;9.25;;
6497;SDS011;3282;48.358;10.958;2022-10-31T01:23:57;18.13;;;9.80;;
6497;SDS011;3282;48.358;10.958;2022-10-31T01:26:25;20.83;;;10.48;;
6497;SDS011;3282;48.358;10.958;2022-10-31T01:28:54;18.27;;;10.02;;
6497;SDS011;3282;48.358;10.958;2022-10-31T01:31:24;14.52;;;7.95;;
6497;SDS011;3282;48.358;10.958;2022-10-31T01:33:52;15.05;;;8.05;;
6497;SDS011;3282;48.358;10.958;2022-10-31T01:38:51;17.90;;;9.23;;
6497;SDS011;3282;48.358;10.958;2022-10-31T01:41:20;15.98;;;9.13;;
6497;SDS011;3282;48.358;10.958;2022-10-31T01:46:19;19.98;;;8.30;;
6497;SDS011;3282;48.358;10.958;2022-10-31T01:48:50;21.38;;;9.32;;
6497;SDS011;3282;48.358;10.958;2022-10-31T01:51:19;16.77;;;8.90;;
6497;SDS011;3282;48.358;10.958;2022-10-31T01:53:49;18.17;;;8.07;;
6497;SDS011;3282;48.358;10.958;2022-10-31T01:56:18;18.70;;;8.88;;
6497;SDS011;3282;48.358;10.958;2022-10-31T01:58:45;16.42;;;8.45;;
6497;SDS011;3282;48.358;10.958;2022-10-31T02:01:15;20.80;;;9.45;;
6497;SDS011;3282;48.358;10.958;2022-10-31T02:03:43;20.45;;;8.90;;
6497;SDS011;3282;48.358;10.958;2022-10-31T02:06:19;19.63;;;8.50;;
6497;SDS011;3282;48.358;10.958;2022-10-31T02:09:09;17.38;;;8.07;;
6497;SDS011;3282;48.358;10.958;2022-10-31T02:11:38;19.90;;;10.32;;
6497;SDS011;3282;48.358;10.958;2022-10-31T02:14:09;15.60;;;7.78;;
6497;SDS011;3282;48.358;10.958;2022-10-31T02:16:36;15.68;;;9.23;;
6497;SDS011;3282;48.358;10.958;2022-10-31T02:19:03;15.65;;;7.88;;
6497;SDS011;3282;48.358;10.958;2022-10-31T02:21:37;15.77;;;8.10;;
6497;SDS011;3282;48.358;10.958;2022-10-31T02:29:50;15.35;;;7.65;;
6497;SDS011;3282;48.358;10.958;2022-10-31T02:32:27;16.50;;;8.70;;
6497;SDS011;3282;48.358;10.958;2022-10-31T02:35:02;16.00;;;8.38;;
6497;SDS011;3282;48.358;10.958;2022-10-31T02:37:37;17.35;;;9.10;;
6497;SDS011;3282;48.358;10.958;2022-10-31T02:40:27;13.75;;;7.15;;
6497;SDS011;3282;48.358;10.958;2022-10-31T02:43:29;17.65;;;8.32;;
6497;SDS011;3282;48.358;10.958;2022-10-31T02:46:04;15.63;;;7.32;;
6497;SDS011;3282;48.358;10.958;2022-10-31T02:48:45;16.02;;;8.30;;
6497;SDS011;3282;48.358;10.958;2022-10-31T02:51:14;18.05;;;8.10;;
6497;SDS011;3282;48.358;10.958;2022-10-31T02:53:42;13.93;;;7.85;;
6497;SDS011;3282;48.358;10.958;2022-10-31T02:58:48;14.43;;;7.13;;
6497;SDS011;3282;48.358;10.958;2022-10-31T03:06:49;14.98;;;7.20;;
6497;SDS011;3282;48.358;10.958;2022-10-31T03:09:33;15.18;;;7.80;;
6497;SDS011;3282;48.358;10.958;2022-10-31T03:12:14;15.32;;;7.50;;
6497;SDS011;3282;48.358;10.958;2022-10-31T03:14:53;15.60;;;7.47;;
6497;SDS011;3282;48.358;10.958;2022-10-31T03:17:33;12.82;;;7.57;;
6497;SDS011;3282;48.358;10.958;2022-10-31T03:20:04;12.73;;;6.50;;
6497;SDS011;3282;48.358;10.958;2022-10-31T03:22:34;17.52;;;7.30;;
6497;SDS011;3282;48.358;10.958;2022-10-31T03:25:04;13.75;;;7.07;;
6497;SDS011;3282;48.358;10.958;2022-10-31T03:27:32;12.32;;;6.70;;
6497;SDS011;3282;48.358;10.958;2022-10-31T03:30:02;14.20;;;7.40;;
6497;SDS011;3282;48.358;10.958;2022-10-31T03:32:41;16.52;;;7.35;;
6497;SDS011;3282;48.358;10.958;2022-10-31T03:35:13;20.00;;;7.70;;
6497;SDS011;3282;48.358;10.958;2022-10-31T03:37:43;12.98;;;7.75;;
6497;SDS011;3282;48.358;10.958;2022-10-31T03:40:14;13.30;;;7.22;;
6497;SDS011;3282;48.358;10.958;2022-10-31T03:42:43;17.50;;;8.18;;
6497;SDS011;3282;48.358;10.958;2022-10-31T03:45:17;18.08;;;7.25;;
6497;SDS011;3282;48.358;10.958;2022-10-31T03:47:49;14.02;;;6.75;;
6497;SDS011;3282;48.358;10.958;2022-10-31T03:50:17;14.95;;;7.40;;
6497;SDS011;3282;48.358;10.958;2022-10-31T04:00:52;14.63;;;7.85;;
6497;SDS011;3282;48.358;10.958;2022-10-31T04:03:22;13.73;;;6.57;;
6497;SDS011;3282;48.358;10.958;2022-10-31T04:05:56;14.32;;;7.50;;
6497;SDS011;3282;48.358;10.958;2022-10-31T04:08:30;16.42;;;7.38;;
6497;SDS011;3282;48.358;10.958;2022-10-31T04:10:59;14.73;;;7.70;;
6497;SDS011;3282;48.358;10.958;2022-10-31T04:13:30;17.83;;;8.65;;
6497;SDS011;3282;48.358;10.958;2022-10-31T04:16:05;14.98;;;7.13;;
6497;SDS011;3282;48.358;10.958;2022-10-31T04:18:39;16.25;;;8.00;;
6497;SDS011;3282;48.358;10.958;2022-10-31T04:21:07;16.45;;;8.35;;
6497;SDS011;3282;48.358;10.958;2022-10-31T04:23:35;16.30;;;8.55;;
6497;SDS011;3282;48.358;10.958;2022-10-31T04:26:22;15.32;;;8.32;;
6497;SDS011;3282;48.358;10.958;2022-10-31T04:28:50;13.95;;;8.55;;
6497;SDS011;3282;48.358;10.958;2022-10-31T04:31:16;14.98;;;7.90;;
6497;SDS011;3282;48.358;10.958;2022-10-31T04:33:46;17.05;;;8.43;;
6497;SDS011;3282;48.358;10.958;2022-10-31T04:36:12;17.13;;;9.20;;
6497;SDS011;3282;48.358;10.958;2022-10-31T04:38:40;12.32;;;7.50;;
6497;SDS011;3282;48.358;10.958;2022-10-31T04:41:27;16.83;;;8.82;;
6497;SDS011;3282;48.358;10.958;2022-10-31T04:44:00;17.88;;;8.57;;
6497;SDS011;3282;48.358;10.958;2022-10-31T04:46:26;13.35;;;7.07;;
6497;SDS011;3282;48.358;10.958;2022-10-31T04:48:56;17.20;;;8.52;;
6497;SDS011;3282;48.358;10.958;2022-10-31T04:51:23;15.60;;;7.32;;
6497;SDS011;3282;48.358;10.958;2022-10-31T04:53:51;15.25;;;8.40;;
6497;SDS011;3282;48.358;10.958;2022-10-31T04:56:37;13.43;;;7.40;;
6497;SDS011;3282;48.358;10.958;2022-10-31T04:59:11;14.27;;;7.60;;
6497;SDS011;3282;48.358;10.958;2022-10-31T05:01:46;14.93;;;8.07;;
6497;SDS011;3282;48.358;10.958;2022-10-31T05:04:12;14.65;;;7.28;;
6497;SDS011;3282;48.358;10.958;2022-10-31T05:06:41;13.35;;;7.57;;
6497;SDS011;3282;48.358;10.958;2022-10-31T05:09:07;16.10;;;7.60;;
6497;SDS011;3282;48.358;10.958;2022-10-31T05:11:34;13.05;;;6.60;;
6497;SDS011;3282;48.358;10.958;2022-10-31T05:14:16;11.55;;;7.13;;
6497;SDS011;3282;48.358;10.958;2022-10-31T05:17:14;13.75;;;6.57;;
6497;SDS011;3282;48.358;10.958;2022-10-31T05:20:03;12.48;;;6.82;;
6497;SDS011;3282;48.358;10.958;2022-10-31T05:22:50;15.07;;;7.20;;
6497;SDS011;3282;48.358;10.958;2022-10-31T05:25:19;11.05;;;6.38;;
6497;SDS011;3282;48.358;10.958;2022-10-31T05:27:49;13.30;;;7.80;;
6497;SDS011;3282;48.358;10.958;2022-10-31T05:30:18;15.52;;;7.20;;
6497;SDS011;3282;48.358;10.958;2022-10-31T05:32:47;16.70;;;7.63;;
6497;SDS011;3282;48.358;10.958;2022-10-31T05:35:35;14.27;;;7.68;;
6497;SDS011;3282;48.358;10.958;2022-10-31T05:38:21;11.20;;;6.45;;
6497;SDS011;3282;48.358;10.958;2022-10-31T05:40:48;14.38;;;7.00;;
6497;SDS011;3282;48.358;10.958;2022-10-31T05:43:14;10.85;;;6.85;;
6497;SDS011;3282;48.358;10.958;2022-10-31T05:45:41;12.65;;;6.65;;
6497;SDS011;3282;48.358;10.958;2022-10-31T05:48:21;14.00;;;7.22;;
6497;SDS011;3282;48.358;10.958;2022-10-31T05:51:06;13.45;;;6.97;;
6497;SDS011;3282;48.358;10.958;2022-10-31T05:53:33;14.30;;;7.95;;
6497;SDS011;3282;48.358;10.958;2022-10-31T05:56:00;12.30;;;6.47;;
6497;SDS011;3282;48.358;10.958;2022-10-31T05:58:27;11.75;;;6.68;;
6497;SDS011;3282;48.358;10.958;2022-10-31T06:01:02;12.75;;;6.40;;
6497;SDS011;3282;48.358;10.958;2022-10-31T06:03:29;13.48;;;7.32;;
6497;SDS011;3282;48.358;10.958;2022-10-31T06:05:56;13.10;;;7.72;;
6497;SDS011;3282;48.358;10.958;2022-10-31T06:08:28;11.90;;;6.10;;
6497;SDS011;3282;48.358;10.958;2022-10-31T06:10:58;12.73;;;7.28;;
6497;SDS011;3282;48.358;10.958;2022-10-31T06:13:44;13.25;;;6.68;;
6497;SDS011;3282;48.358;10.958;2022-10-31T06:16:22;14.32;;;6.20;;
6497;SDS011;3282;48.358;10.958;2022-10-31T06:18:49;14.15;;;7.45;;
6497;SDS011;3282;48.358;10.958;2022-10-31T06:21:16;13.10;;;6.40;;
6497;SDS011;3282;48.358;10.958;2022-10-31T06:23:47;12.45;;;7.20;;
6497;SDS011;3282;48.358;10.958;2022-10-31T06:26:42;12.57;;;6.80;;
6497;SDS011;3282;48.358;10.958;2022-10-31T06:29:09;15.13;;;6.35;;
6497;SDS011;3282;48.358;10.958;2022-10-31T06:32:05;12.18;;;6.57;;
6497;SDS011;3282;48.358;10.958;2022-10-31T06:34:37;13.15;;;6.50;;
6497;SDS011;3282;48.358;10.958;2022-10-31T06:37:07;12.48;;;6.63;;
6497;SDS011;3282;48.358;10.958;2022-10-31T06:39:34;12.57;;;6.75;;
6497;SDS011;3282;48.358;10.958;2022-10-31T06:42:01;14.82;;;7.80;;
6497;SDS011;3282;48.358;10.958;2022-10-31T06:44:29;11.38;;;6.43;;
6497;SDS011;3282;48.358;10.958;2022-10-31T06:46:56;12.65;;;7.28;;
6497;SDS011;3282;48.358;10.958;2022-10-31T06:49:32;14.48;;;7.28;;
6497;SDS011;3282;48.358;10.958;2022-10-31T06:52:01;11.45;;;6.20;;
6497;SDS011;3282;48.358;10.958;2022-10-31T06:54:28;13.45;;;6.82;;
6497;SDS011;3282;48.358;10.958;2022-10-31T06:56:55;14.43;;;7.13;;
6497;SDS011;3282;48.358;10.958;2022-10-31T06:59:21;14.77;;;7.10;;
6497;SDS011;3282;48.358;10.958;2022-10-31T07:02:09;12.57;;;6.80;;
6497;SDS011;3282;48.358;10.958;2022-10-31T07:04:38;11.90;;;6.47;;
6497;SDS011;3282;48.358;10.958;2022-10-31T07:07:06;9.82;;;6.05;;
6497;SDS011;3282;48.358;10.958;2022-10-31T07:09:33;12.77;;;7.07;;
6497;SDS011;3282;48.358;10.958;2022-10-31T07:12:02;13.70;;;6.15;;
6497;SDS011;3282;48.358;10.958;2022-10-31T07:14:31;13.75;;;6.90;;
6497;SDS011;3282;48.358;10.958;2022-10-31T07:16:58;13.48;;;8.13;;
6497;SDS011;3282;48.358;10.958;2022-10-31T07:19:31;16.08;;;8.43;;
6497;SDS011;3282;48.358;10.958;2022-10-31T07:21:57;13.07;;;7.38;;
6497;SDS011;3282;48.358;10.958;2022-10-31T07:24:27;13.63;;;6.72;;
6497;SDS011;3282;48.358;10.958;2022-10-31T07:27:19;13.40;;;7.53;;
6497;SDS011;3282;48.358;10.958;2022-10-31T07:29:47;14.70;;;7.70;;
6497;SDS011;3282;48.358;10.958;2022-10-31T07:32:15;16.08;;;7.65;;
6497;SDS011;3282;48.358;10.958;2022-10-31T07:34:49;15.27;;;7.68;;
6497;SDS011;3282;48.358;10.958;2022-10-31T07:37:35;15.95;;;7.63;;
6497;SDS011;3282;48.358;10.958;2022-10-31T07:40:03;16.33;;;7.93;;
6497;SDS011;3282;48.358;10.958;2022-10-31T07:42:35;14.27;;;7.75;;
6497;SDS011;3282;48.358;10.958;2022-10-31T07:45:02;12.80;;;7.55;;
6497;SDS011;3282;48.358;10.958;2022-10-31T07:48:08;17.58;;;7.80;;
6497;SDS011;3282;48.358;10.958;2022-10-31T07:50:54;19.55;;;8.43;;
6497;SDS011;3282;48.358;10.958;2022-10-31T07:53:51;15.85;;;8.27;;
6497;SDS011;3282;48.358;10.958;2022-10-31T07:56:27;14.25;;;7.65;;
6497;SDS011;3282;48.358;10.958;2022-10-31T07:58:54;17.55;;;8.23;;
6497;SDS011;3282;48.358;10.958;2022-10-31T08:01:20;17.55;;;8.80;;
6497;SDS011;3282;48.358;10.958;2022-10-31T08:04:05;17.30;;;8.32;;
6497;SDS011;3282;48.358;10.958;2022-10-31T08:06:50;22.65;;;8.80;;
6497;SDS011;3282;48.358;10.958;2022-10-31T08:09:26;19.13;;;8.45;;
6497;SDS011;3282;48.358;10.958;2022-10-31T08:11:55;19.60;;;8.65;;
6497;SDS011;3282;48.358;10.958;2022-10-31T08:14:21;20.17;;;8.90;;
6497;SDS011;3282;48.358;10.958;2022-10-31T08:16:51;21.55;;;8.45;;
6497;SDS011;3282;48.358;10.958;2022-10-31T08:19:19;19.40;;;8.73;;
6497;SDS011;3282;48.358;10.958;2022-10-31T08:21:46;18.00;;;9.10;;
6497;SDS011;3282;48.358;10.958;2022-10-31T08:24:13;21.13;;;9.27;;
6497;SDS011;3282;48.358;10.958;2022-10-31T08:26:41;16.90;;;8.55;;
6497;SDS011;3282;48.358;10.958;2022-10-31T08:29:09;18.02;;;8.52;;
6497;SDS011;3282;48.358;10.958;2022-10-31T08:31:37;15.02;;;8.30;;
6497;SDS011;3282;48.358;10.958;2022-10-31T08:34:46;19.98;;;8.60;;
6497;SDS011;3282;48.358;10.958;2022-10-31T08:37:36;17.45;;;8.65;;
6497;SDS011;3282;48.358;10.958;2022-10-31T08:40:04;19.63;;;8.88;;
6497;SDS011;3282;48.358;10.958;2022-10-31T08:42:34;16.40;;;8.70;;
6497;SDS011;3282;48.358;10.958;2022-10-31T08:45:01;20.02;;;8.32;;
6497;SDS011;3282;48.358;10.958;2022-10-31T08:47:29;19.05;;;9.00;;
6497;SDS011;3282;48.358;10.958;2022-10-31T08:49:57;16.42;;;8.05;;
6497;SDS011;3282;48.358;10.958;2022-10-31T08:52:24;19.45;;;8.88;;
6497;SDS011;3282;48.358;10.958;2022-10-31T08:55:11;16.65;;;8.57;;
6497;SDS011;3282;48.358;10.958;2022-10-31T08:57:57;21.42;;;9.35;;
6497;SDS011;3282;48.358;10.958;2022-10-31T09:00:34;19.33;;;9.35;;
6497;SDS011;3282;48.358;10.958;2022-10-31T09:03:15;20.90;;;10.30;;
6497;SDS011;3282;48.358;10.958;2022-10-31T09:05:46;18.47;;;8.63;;
6497;SDS011;3282;48.358;10.958;2022-10-31T09:08:13;20.05;;;9.98;;
6497;SDS011;3282;48.358;10.958;2022-10-31T09:10:44;24.25;;;12.35;;
6497;SDS011;3282;48.358;10.958;2022-10-31T09:13:18;24.13;;;13.10;;
6497;SDS011;3282;48.358;10.958;2022-10-31T09:16:21;27.42;;;12.85;;
6497;SDS011;3282;48.358;10.958;2022-10-31T09:18:48;20.75;;;11.88;;
6497;SDS011;3282;48.358;10.958;2022-10-31T09:21:15;22.17;;;11.80;;
6497;SDS011;3282;48.358;10.958;2022-10-31T09:23:42;25.13;;;12.10;;
6497;SDS011;3282;48.358;10.958;2022-10-31T09:26:09;27.65;;;13.05;;
6497;SDS011;3282;48.358;10.958;2022-10-31T09:28:37;24.55;;;12.18;;
6497;SDS011;3282;48.358;10.958;2022-10-31T09:31:07;24.92;;;13.07;;
6497;SDS011;3282;48.358;10.958;2022-10-31T09:33:52;27.17;;;12.75;;
6497;SDS011;3282;48.358;10.958;2022-10-31T09:36:35;24.17;;;12.50;;
6497;SDS011;3282;48.358;10.958;2022-10-31T09:39:05;29.58;;;13.70;;
6497;SDS011;3282;48.358;10.958;2022-10-31T09:44:31;25.23;;;12.25;;
6497;SDS011;3282;48.358;10.958;2022-10-31T09:47:29;27.52;;;13.20;;
6497;SDS011;3282;48.358;10.958;2022-10-31T09:50:34;22.30;;;11.85;;
6497;SDS011;3282;48.358;10.958;2022-10-31T09:53:51;28.42;;;13.18;;
6497;SDS011;3282;48.358;10.958;2022-10-31T09:56:28;22.63;;;13.15;;
6497;SDS011;3282;48.358;10.958;2022-10-31T09:58:58;23.60;;;13.15;;
6497;SDS011;3282;48.358;10.958;2022-10-31T10:04:16;29.02;;;13.40;;
6497;SDS011;3282;48.358;10.958;2022-10-31T10:07:06;27.45;;;13.48;;
6497;SDS011;3282;48.358;10.958;2022-10-31T10:09:43;22.33;;;12.15;;
6497;SDS011;3282;48.358;10.958;2022-10-31T10:18:42;26.77;;;15.93;;
6497;SDS011;3282;48.358;10.958;2022-10-31T10:21:16;29.98;;;17.33;;
6497;SDS011;3282;48.358;10.958;2022-10-31T10:26:43;33.60;;;17.88;;
6497;SDS011;3282;48.358;10.958;2022-10-31T10:29:29;30.13;;;16.42;;
6497;SDS011;3282;48.358;10.958;2022-10-31T10:32:01;30.45;;;16.83;;
6497;SDS011;3282;48.358;10.958;2022-10-31T10:34:45;35.17;;;20.35;;
6497;SDS011;3282;48.358;10.958;2022-10-31T10:42:50;23.70;;;15.02;;
6497;SDS011;3282;48.358;10.958;2022-10-31T10:45:46;23.40;;;16.30;;
6497;SDS011;3282;48.358;10.958;2022-10-31T10:48:41;27.15;;;15.85;;
6497;SDS011;3282;48.358;10.958;2022-10-31T10:51:21;28.10;;;15.70;;
6497;SDS011;3282;48.358;10.958;2022-10-31T11:00:16;28.52;;;17.08;;
6497;SDS011;3282;48.358;10.958;2022-10-31T11:02:57;28.17;;;17.40;;
6497;SDS011;3282;48.358;10.958;2022-10-31T11:05:33;26.67;;;17.13;;
6497;SDS011;3282;48.358;10.958;2022-10-31T11:08:03;25.83;;;15.98;;
6497;SDS011;3282;48.358;10.958;2022-10-31T11:10:31;29.73;;;18.05;;
6497;SDS011;3282;48.358;10.958;2022-10-31T11:15:31;31.73;;;19.00;;
6497;SDS011;3282;48.358;10.958;2022-10-31T11:18:01;28.27;;;18.83;;
6497;SDS011;3282;48.358;10.958;2022-10-31T11:20:32;29.73;;;18.38;;
6497;SDS011;3282;48.358;10.958;2022-10-31T11:23:02;27.52;;;18.52;;
6497;SDS011;3282;48.358;10.958;2022-10-31T11:25:55;30.65;;;19.00;;
6497;SDS011;3282;48.358;10.958;2022-10-31T11:28:24;29.92;;;19.55;;
6497;SDS011;3282;48.358;10.958;2022-10-31T11:30:58;31.73;;;19.67;;
6497;SDS011;3282;48.358;10.958;2022-10-31T11:33:29;30.95;;;19.30;;
6497;SDS011;3282;48.358;10.958;2022-10-31T11:36:02;34.33;;;19.50;;
6497;SDS011;3282;48.358;10.958;2022-10-31T11:38:46;31.40;;;19.05;;
6497;SDS011;3282;48.358;10.958;2022-10-31T11:41:14;28.83;;;19.70;;
6497;SDS011;3282;48.358;10.958;2022-10-31T11:43:50;33.80;;;20.55;;
6497;SDS011;3282;48.358;10.958;2022-10-31T11:51:55;26.65;;;18.08;;
6497;SDS011;3282;48.358;10.958;2022-10-31T11:54:29;30.20;;;18.63;;
6497;SDS011;3282;48.358;10.958;2022-10-31T11:56:58;32.40;;;19.17;;
6497;SDS011;3282;48.358;10.958;2022-10-31T11:59:29;31.25;;;18.05;;
6497;SDS011;3282;48.358;10.958;2022-10-31T12:01:58;27.15;;;19.35;;
6497;SDS011;3282;48.358;10.958;2022-10-31T12:04:31;30.42;;;18.20;;
6497;SDS011;3282;48.358;10.958;2022-10-31T12:07:03;29.92;;;17.45;;
6497;SDS011;3282;48.358;10.958;2022-10-31T12:09:30;27.80;;;17.90;;
6497;SDS011;3282;48.358;10.958;2022-10-31T12:17:22;30.42;;;17.55;;
6497;SDS011;3282;48.358;10.958;2022-10-31T12:20:03;29.30;;;18.05;;
6497;SDS011;3282;48.358;10.958;2022-10-31T12:25:53;26.17;;;16.95;;
6497;SDS011;3282;48.358;10.958;2022-10-31T12:28:36;27.17;;;17.10;;
6497;SDS011;3282;48.358;10.958;2022-10-31T12:31:24;25.58;;;16.55;;
6497;SDS011;3282;48.358;10.958;2022-10-31T12:55:36;28.02;;;16.05;;
6497;SDS011;3282;48.358;10.958;2022-10-31T12:58:10;26.67;;;16.17;;
6497;SDS011;3282;48.358;10.958;2022-10-31T13:00:40;27.98;;;16.92;;
6497;SDS011;3282;48.358;10.958;2022-10-31T13:05:39;27.85;;;17.00;;
6497;SDS011;3282;48.358;10.958;2022-10-31T13:08:10;25.85;;;16.40;;
6497;SDS011;3282;48.358;10.958;2022-10-31T13:10:42;28.17;;;16.63;;
6497;SDS011;3282;48.358;10.958;2022-10-31T13:13:13;24.85;;;16.27;;
6497;SDS011;3282;48.358;10.958;2022-10-31T13:15:48;27.75;;;17.17;;
6497;SDS011;3282;48.358;10.958;2022-10-31T13:18:22;26.10;;;17.10;;
6497;SDS011;3282;48.358;10.958;2022-10-31T13:20:54;29.83;;;18.25;;
6497;SDS011;3282;48.358;10.958;2022-10-31T13:23:30;27.45;;;17.48;;
6497;SDS011;3282;48.358;10.958;2022-10-31T13:26:24;25.90;;;18.00;;
6497;SDS011;3282;48.358;10.958;2022-10-31T13:29:19;26.65;;;17.83;;
6497;SDS011;3282;48.358;10.958;2022-10-31T13:31:55;25.10;;;17.13;;
6497;SDS011;3282;48.358;10.958;2022-10-31T13:34:37;29.25;;;18.25;;
6497;SDS011;3282;48.358;10.958;2022-10-31T13:40:33;24.85;;;17.90;;
6497;SDS011;3282;48.358;10.958;2022-10-31T13:45:52;26.92;;;18.67;;
6497;SDS011;3282;48.358;10.958;2022-10-31T13:51:02;21.85;;;15.70;;
6497;SDS011;3282;48.358;10.958;2022-10-31T13:53:42;23.00;;;16.65;;
6497;SDS011;3282;48.358;10.958;2022-10-31T13:56:30;25.85;;;14.73;;
6497;SDS011;3282;48.358;10.958;2022-10-31T13:59:00;24.52;;;15.93;;
6497;SDS011;3282;48.358;10.958;2022-10-31T14:01:33;24.30;;;16.15;;
6497;SDS011;3282;48.358;10.958;2022-10-31T14:04:04;22.48;;;16.75;;
6497;SDS011;3282;48.358;10.958;2022-10-31T14:06:45;25.73;;;17.65;;
6497;SDS011;3282;48.358;10.958;2022-10-31T14:09:22;27.20;;;18.67;;
6497;SDS011;3282;48.358;10.958;2022-10-31T14:11:56;26.80;;;18.33;;
6497;SDS011;3282;48.358;10.958;2022-10-31T14:14:26;28.55;;;18.30;;
6497;SDS011;3282;48.358;10.958;2022-10-31T14:19:25;23.17;;;17.75;;
6497;SDS011;3282;48.358;10.958;2022-10-31T14:21:52;26.63;;;19.58;;
6497;SDS011;3282;48.358;10.958;2022-10-31T14:29:32;27.88;;;19.40;;
6497;SDS011;3282;48.358;10.958;2022-10-31T14:32:20;26.08;;;19.45;;
6497;SDS011;3282;48.358;10.958;2022-10-31T14:34:53;24.80;;;19.08;;
6497;SDS011;3282;48.358;10.958;2022-10-31T14:40:32;32.20;;;20.80;;
6497;SDS011;3282;48.358;10.958;2022-10-31T14:51:58;29.70;;;20.48;;
6497;SDS011;3282;48.358;10.958;2022-10-31T14:54:28;26.67;;;20.40;;
6497;SDS011;3282;48.358;10.958;2022-10-31T14:57:08;27.88;;;20.17;;
6497;SDS011;3282;48.358;10.958;2022-10-31T14:59:44;28.20;;;20.77;;
6497;SDS011;3282;48.358;10.958;2022-10-31T15:02:17;29.57;;;20.20;;
6497;SDS011;3282;48.358;10.958;2022-10-31T15:04:51;26.83;;;20.20;;
6497;SDS011;3282;48.358;10.958;2022-10-31T15:07:20;29.58;;;19.63;;
6497;SDS011;3282;48.358;10.958;2022-10-31T15:10:06;28.38;;;20.00;;
6497;SDS011;3282;48.358;10.958;2022-10-31T15:12:46;27.02;;;19.40;;
6497;SDS011;3282;48.358;10.958;2022-10-31T15:15:14;26.42;;;19.50;;
6497;SDS011;3282;48.358;10.958;2022-10-31T15:17:49;25.42;;;18.30;;
6497;SDS011;3282;48.358;10.958;2022-10-31T15:20:26;25.45;;;18.98;;
6497;SDS011;3282;48.358;10.958;2022-10-31T15:22:56;26.05;;;19.00;;
6497;SDS011;3282;48.358;10.958;2022-10-31T15:25:24;24.20;;;18.30;;
6497;SDS011;3282;48.358;10.958;2022-10-31T15:27:53;26.10;;;19.48;;
6497;SDS011;3282;48.358;10.958;2022-10-31T15:32:47;28.33;;;20.85;;
6497;SDS011;3282;48.358;10.958;2022-10-31T15:35:24;25.77;;;19.35;;
6497;SDS011;3282;48.358;10.958;2022-10-31T15:37:53;24.55;;;20.05;;
6497;SDS011;3282;48.358;10.958;2022-10-31T15:40:22;28.92;;;21.58;;
6497;SDS011;3282;48.358;10.958;2022-10-31T15:42:57;22.88;;;18.25;;
6497;SDS011;3282;48.358;10.958;2022-10-31T15:45:27;23.05;;;18.02;;
6497;SDS011;3282;48.358;10.958;2022-10-31T15:47:57;25.63;;;18.65;;
6497;SDS011;3282;48.358;10.958;2022-10-31T15:50:35;22.73;;;18.02;;
6497;SDS011;3282;48.358;10.958;2022-10-31T15:53:14;22.27;;;17.55;;
6497;SDS011;3282;48.358;10.958;2022-10-31T15:55:48;26.42;;;21.02;;
6497;SDS011;3282;48.358;10.958;2022-10-31T15:58:17;28.08;;;21.35;;
6497;SDS011;3282;48.358;10.958;2022-10-31T16:00:44;34.65;;;25.02;;
6497;SDS011;3282;48.358;10.958;2022-10-31T16:03:26;46.75;;;33.03;;
6497;SDS011;3282;48.358;10.958;2022-10-31T16:05:58;40.70;;;27.63;;
6497;SDS011;3282;48.358;10.958;2022-10-31T16:10:57;32.83;;;24.63;;
6497;SDS011;3282;48.358;10.958;2022-10-31T16:13:34;31.85;;;23.20;;
6497;SDS011;3282;48.358;10.958;2022-10-31T16:16:18;26.63;;;19.55;;
6497;SDS011;3282;48.358;10.958;2022-10-31T16:19:00;22.65;;;18.08;;
6497;SDS011;3282;48.358;10.958;2022-10-31T16:21:33;30.05;;;21.20;;
6497;SDS011;3282;48.358;10.958;2022-10-31T16:24:46;29.42;;;20.63;;
6497;SDS011;3282;48.358;10.958;2022-10-31T16:27:00;32.35;;;18.77;;
6497;SDS011;3282;48.358;10.958;2022-10-31T16:29:41;56.05;;;28.15;;
6497;SDS011;3282;48.358;10.958;2022-10-31T16:32:25;29.35;;;21.05;;
6497;SDS011;3282;48.358;10.958;2022-10-31T16:35:01;30.30;;;21.38;;
6497;SDS011;3282;48.358;10.958;2022-10-31T16:37:28;148.68;;;35.05;;
6497;SDS011;3282;48.358;10.958;2022-10-31T16:39:54;64.43;;;25.23;;
6497;SDS011;3282;48.358;10.958;2022-10-31T16:42:21;34.97;;;25.08;;
6497;SDS011;3282;48.358;10.958;2022-10-31T16:44:48;49.13;;;30.77;;
6497;SDS011;3282;48.358;10.958;2022-10-31T16:47:15;33.53;;;24.25;;
6497;SDS011;3282;48.358;10.958;2022-10-31T16:49:43;30.80;;;21.90;;
6497;SDS011;3282;48.358;10.958;2022-10-31T16:52:12;28.40;;;22.33;;
6497;SDS011;3282;48.358;10.958;2022-10-31T16:54:39;26.83;;;21.10;;
6497;SDS011;3282;48.358;10.958;2022-10-31T16:57:05;27.10;;;21.02;;
6497;SDS011;3282;48.358;10.958;2022-10-31T16:59:33;28.30;;;23.63;;
6497;SDS011;3282;48.358;10.958;2022-10-31T17:02:00;24.83;;;19.90;;
6497;SDS011;3282;48.358;10.958;2022-10-31T17:04:28;29.58;;;21.85;;
6497;SDS011;3282;48.358;10.958;2022-10-31T17:06:55;21.83;;;18.17;;
6497;SDS011;3282;48.358;10.958;2022-10-31T17:09:21;23.65;;;18.15;;
6497;SDS011;3282;48.358;10.958;2022-10-31T17:11:49;22.20;;;18.15;;
6497;SDS011;3282;48.358;10.958;2022-10-31T17:14:17;22.40;;;17.55;;
6497;SDS011;3282;48.358;10.958;2022-10-31T17:16:44;19.38;;;16.33;;
6497;SDS011;3282;48.358;10.958;2022-10-31T17:19:11;27.08;;;22.30;;
6497;SDS011;3282;48.358;10.958;2022-10-31T17:21:38;36.78;;;28.23;;
6497;SDS011;3282;48.358;10.958;2022-10-31T17:24:06;30.27;;;22.25;;